sensor_id;sensor_type;location;lat;lon;timestamp;temperature;humidity
35325;DHT22;35135;47.510;19.036;2023-05-23T00:01:15;24.60;53.00
35325;DHT22;35135;47.510;19.036;2023-05-23T00:03:41;24.60;52.70
35325;DHT22;35135;47.510;19.036;2023-05-23T00:06:07;24.50;52.40
35325;DHT22;35135;47.510;19.036;2023-05-23T00:08:33;24.50;52.70
35325;DHT22;35135;47.510;19.036;2023-05-23T00:10:59;24.40;53.20
35325;DHT22;35135;47.510;19.036;2023-05-23T00:13:25;24.40;53.00
35325;DHT22;35135;47.510;19.036;2023-05-23T00:15:51;24.40;53.20
35325;DHT22;35135;47.510;19.036;2023-05-23T00:18:16;24.50;53.20
35325;DHT22;35135;47.510;19.036;2023-05-23T00:20:43;24.50;52.40
35325;DHT22;35135;47.510;19.036;2023-05-23T00:23:10;24.40;52.30
35325;DHT22;35135;47.510;19.036;2023-05-23T00:25:36;24.30;53.10
35325;DHT22;35135;47.510;19.036;2023-05-23T00:28:03;24.30;53.10
35325;DHT22;35135;47.510;19.036;2023-05-23T00:30:30;24.30;53.20
35325;DHT22;35135;47.510;19.036;2023-05-23T00:32:56;24.30;53.00
35325;DHT22;35135;47.510;19.036;2023-05-23T00:35:23;24.30;52.80
35325;DHT22;35135;47.510;19.036;2023-05-23T00:37:49;24.30;53.20
35325;DHT22;35135;47.510;19.036;2023-05-23T00:40:17;24.30;52.90
35325;DHT22;35135;47.510;19.036;2023-05-23T00:42:43;24.30;52.50
35325;DHT22;35135;47.510;19.036;2023-05-23T00:45:08;24.30;52.70
35325;DHT22;35135;47.510;19.036;2023-05-23T00:47:38;24.20;52.80
35325;DHT22;35135;47.510;19.036;2023-05-23T00:50:05;24.20;52.80
35325;DHT22;35135;47.510;19.036;2023-05-23T00:52:32;24.20;53.30
35325;DHT22;35135;47.510;19.036;2023-05-23T00:54:57;24.30;53.30
35325;DHT22;35135;47.510;19.036;2023-05-23T00:57:23;24.30;52.60
35325;DHT22;35135;47.510;19.036;2023-05-23T00:59:49;24.20;52.80
35325;DHT22;35135;47.510;19.036;2023-05-23T01:02:15;24.20;52.70
35325;DHT22;35135;47.510;19.036;2023-05-23T01:04:42;24.20;52.90
35325;DHT22;35135;47.510;19.036;2023-05-23T01:07:08;24.30;53.20
35325;DHT22;35135;47.510;19.036;2023-05-23T01:09:35;24.30;53.10
35325;DHT22;35135;47.510;19.036;2023-05-23T01:12:16;24.40;53.00
35325;DHT22;35135;47.510;19.036;2023-05-23T01:14:48;24.30;52.20
35325;DHT22;35135;47.510;19.036;2023-05-23T01:17:20;24.30;52.50
35325;DHT22;35135;47.510;19.036;2023-05-23T01:19:59;24.20;52.60
35325;DHT22;35135;47.510;19.036;2023-05-23T01:27:55;24.20;52.50
35325;DHT22;35135;47.510;19.036;2023-05-23T01:30:23;24.20;52.60
35325;DHT22;35135;47.510;19.036;2023-05-23T01:32:52;24.20;53.00
35325;DHT22;35135;47.510;19.036;2023-05-23T01:35:24;24.10;52.90
35325;DHT22;35135;47.510;19.036;2023-05-23T01:37:56;24.10;52.60
35325;DHT22;35135;47.510;19.036;2023-05-23T01:40:23;24.00;52.80
35325;DHT22;35135;47.510;19.036;2023-05-23T01:42:50;24.00;53.20
35325;DHT22;35135;47.510;19.036;2023-05-23T01:45:16;24.00;53.20
35325;DHT22;35135;47.510;19.036;2023-05-23T01:47:42;24.00;53.10
35325;DHT22;35135;47.510;19.036;2023-05-23T01:50:09;24.00;53.50
35325;DHT22;35135;47.510;19.036;2023-05-23T01:52:36;24.00;53.30
35325;DHT22;35135;47.510;19.036;2023-05-23T01:55:04;24.00;53.40
35325;DHT22;35135;47.510;19.036;2023-05-23T01:57:35;24.00;53.30
35325;DHT22;35135;47.510;19.036;2023-05-23T02:00:03;24.00;53.50
35325;DHT22;35135;47.510;19.036;2023-05-23T02:02:31;24.10;53.50
35325;DHT22;35135;47.510;19.036;2023-05-23T02:04:57;24.10;53.40
35325;DHT22;35135;47.510;19.036;2023-05-23T02:07:23;24.00;53.60
35325;DHT22;35135;47.510;19.036;2023-05-23T02:09:49;24.00;53.60
35325;DHT22;35135;47.510;19.036;2023-05-23T02:12:15;24.00;53.60
35325;DHT22;35135;47.510;19.036;2023-05-23T02:14:40;24.00;53.80
35325;DHT22;35135;47.510;19.036;2023-05-23T02:17:07;24.00;53.60
35325;DHT22;35135;47.510;19.036;2023-05-23T02:19:35;24.00;53.80
35325;DHT22;35135;47.510;19.036;2023-05-23T02:22:01;24.10;53.70
35325;DHT22;35135;47.510;19.036;2023-05-23T02:24:26;24.00;53.60
35325;DHT22;35135;47.510;19.036;2023-05-23T02:26:52;24.00;53.50
35325;DHT22;35135;47.510;19.036;2023-05-23T02:29:18;24.00;53.60
35325;DHT22;35135;47.510;19.036;2023-05-23T02:31:43;24.00;53.70
35325;DHT22;35135;47.510;19.036;2023-05-23T02:34:09;24.00;53.70
35325;DHT22;35135;47.510;19.036;2023-05-23T02:36:35;23.90;53.70
35325;DHT22;35135;47.510;19.036;2023-05-23T02:39:02;23.90;53.80
35325;DHT22;35135;47.510;19.036;2023-05-23T02:41:28;23.90;53.90
35325;DHT22;35135;47.510;19.036;2023-05-23T02:43:54;23.90;53.90
35325;DHT22;35135;47.510;19.036;2023-05-23T02:46:20;23.90;53.70
35325;DHT22;35135;47.510;19.036;2023-05-23T02:48:45;23.70;53.90
35325;DHT22;35135;47.510;19.036;2023-05-23T02:51:11;23.70;54.20
35325;DHT22;35135;47.510;19.036;2023-05-23T02:53:38;23.70;54.40
35325;DHT22;35135;47.510;19.036;2023-05-23T02:56:04;23.70;54.40
35325;DHT22;35135;47.510;19.036;2023-05-23T02:58:30;23.80;54.30
35325;DHT22;35135;47.510;19.036;2023-05-23T03:00:56;23.70;54.20
35325;DHT22;35135;47.510;19.036;2023-05-23T03:03:22;23.80;54.50
35325;DHT22;35135;47.510;19.036;2023-05-23T03:05:48;23.80;54.30
35325;DHT22;35135;47.510;19.036;2023-05-23T03:08:13;23.80;54.00
35325;DHT22;35135;47.510;19.036;2023-05-23T03:10:39;23.90;54.00
35325;DHT22;35135;47.510;19.036;2023-05-23T03:13:04;23.90;53.80
35325;DHT22;35135;47.510;19.036;2023-05-23T03:15:30;23.90;54.00
35325;DHT22;35135;47.510;19.036;2023-05-23T03:17:56;24.00;53.80
35325;DHT22;35135;47.510;19.036;2023-05-23T03:20:21;24.00;54.10
35325;DHT22;35135;47.510;19.036;2023-05-23T03:22:47;24.00;53.90
35325;DHT22;35135;47.510;19.036;2023-05-23T03:25:14;24.00;53.60
35325;DHT22;35135;47.510;19.036;2023-05-23T03:27:40;23.90;53.80
35325;DHT22;35135;47.510;19.036;2023-05-23T03:30:06;24.00;54.10
35325;DHT22;35135;47.510;19.036;2023-05-23T03:32:32;24.00;53.90
35325;DHT22;35135;47.510;19.036;2023-05-23T03:34:58;24.00;54.00
35325;DHT22;35135;47.510;19.036;2023-05-23T03:37:23;24.10;54.00
35325;DHT22;35135;47.510;19.036;2023-05-23T03:39:49;24.10;53.60
35325;DHT22;35135;47.510;19.036;2023-05-23T03:42:17;24.10;53.30
35325;DHT22;35135;47.510;19.036;2023-05-23T03:44:42;24.10;53.20
35325;DHT22;35135;47.510;19.036;2023-05-23T03:47:08;24.00;53.20
35325;DHT22;35135;47.510;19.036;2023-05-23T03:49:34;24.00;53.30
35325;DHT22;35135;47.510;19.036;2023-05-23T03:52:00;23.90;53.80
35325;DHT22;35135;47.510;19.036;2023-05-23T03:54:25;23.80;53.70
35325;DHT22;35135;47.510;19.036;2023-05-23T03:56:51;23.80;54.20
35325;DHT22;35135;47.510;19.036;2023-05-23T03:59:17;23.80;53.70
35325;DHT22;35135;47.510;19.036;2023-05-23T04:01:42;23.80;53.90
35325;DHT22;35135;47.510;19.036;2023-05-23T04:04:08;23.80;54.30
35325;DHT22;35135;47.510;19.036;2023-05-23T04:06:34;23.80;54.10
35325;DHT22;35135;47.510;19.036;2023-05-23T04:08:59;23.90;54.20
35325;DHT22;35135;47.510;19.036;2023-05-23T04:11:26;23.90;53.80
35325;DHT22;35135;47.510;19.036;2023-05-23T04:13:52;23.90;53.80
35325;DHT22;35135;47.510;19.036;2023-05-23T04:16:18;23.90;53.90
35325;DHT22;35135;47.510;19.036;2023-05-23T04:18:44;24.00;54.00
35325;DHT22;35135;47.510;19.036;2023-05-23T04:21:11;24.10;53.60
35325;DHT22;35135;47.510;19.036;2023-05-23T04:23:37;24.10;53.00
35325;DHT22;35135;47.510;19.036;2023-05-23T04:26:03;24.10;53.00
35325;DHT22;35135;47.510;19.036;2023-05-23T04:28:30;24.10;53.20
35325;DHT22;35135;47.510;19.036;2023-05-23T04:30:56;24.10;53.10
35325;DHT22;35135;47.510;19.036;2023-05-23T04:33:23;24.10;53.40
35325;DHT22;35135;47.510;19.036;2023-05-23T04:35:49;24.10;53.40
35325;DHT22;35135;47.510;19.036;2023-05-23T04:38:15;24.10;53.10
35325;DHT22;35135;47.510;19.036;2023-05-23T04:40:41;24.20;53.30
35325;DHT22;35135;47.510;19.036;2023-05-23T04:43:07;24.20;53.30
35325;DHT22;35135;47.510;19.036;2023-05-23T04:45:34;24.20;53.20
35325;DHT22;35135;47.510;19.036;2023-05-23T04:48:01;24.30;53.30
35325;DHT22;35135;47.510;19.036;2023-05-23T04:50:28;24.40;53.00
35325;DHT22;35135;47.510;19.036;2023-05-23T04:52:57;24.40;52.80
35325;DHT22;35135;47.510;19.036;2023-05-23T04:55:23;24.40;52.90
35325;DHT22;35135;47.510;19.036;2023-05-23T04:57:48;24.40;52.60
35325;DHT22;35135;47.510;19.036;2023-05-23T05:00:14;24.50;52.40
35325;DHT22;35135;47.510;19.036;2023-05-23T05:02:40;24.50;52.60
35325;DHT22;35135;47.510;19.036;2023-05-23T05:05:06;24.60;52.60
35325;DHT22;35135;47.510;19.036;2023-05-23T05:07:32;24.70;52.50
35325;DHT22;35135;47.510;19.036;2023-05-23T05:10:00;24.70;52.30
35325;DHT22;35135;47.510;19.036;2023-05-23T05:12:25;24.80;52.10
35325;DHT22;35135;47.510;19.036;2023-05-23T05:14:51;24.80;52.00
35325;DHT22;35135;47.510;19.036;2023-05-23T05:17:17;24.70;51.70
35325;DHT22;35135;47.510;19.036;2023-05-23T05:19:44;24.60;52.80
35325;DHT22;35135;47.510;19.036;2023-05-23T05:22:10;24.50;52.40
35325;DHT22;35135;47.510;19.036;2023-05-23T05:24:36;24.60;52.20
35325;DHT22;35135;47.510;19.036;2023-05-23T05:27:02;24.70;51.90
35325;DHT22;35135;47.510;19.036;2023-05-23T05:29:28;24.70;52.20
35325;DHT22;35135;47.510;19.036;2023-05-23T05:31:54;24.70;52.50
35325;DHT22;35135;47.510;19.036;2023-05-23T05:34:19;24.80;52.20
35325;DHT22;35135;47.510;19.036;2023-05-23T05:36:45;24.90;52.10
35325;DHT22;35135;47.510;19.036;2023-05-23T05:39:13;25.00;51.70
35325;DHT22;35135;47.510;19.036;2023-05-23T05:41:39;25.10;51.80
35325;DHT22;35135;47.510;19.036;2023-05-23T05:44:08;25.10;51.40
35325;DHT22;35135;47.510;19.036;2023-05-23T05:46:34;25.20;51.40
35325;DHT22;35135;47.510;19.036;2023-05-23T05:49:00;25.20;51.60
35325;DHT22;35135;47.510;19.036;2023-05-23T05:51:25;25.30;51.30
35325;DHT22;35135;47.510;19.036;2023-05-23T05:53:51;25.40;50.90
35325;DHT22;35135;47.510;19.036;2023-05-23T05:56:16;25.50;50.50
35325;DHT22;35135;47.510;19.036;2023-05-23T05:58:42;25.50;50.20
35325;DHT22;35135;47.510;19.036;2023-05-23T06:01:08;25.50;49.90
35325;DHT22;35135;47.510;19.036;2023-05-23T06:03:34;25.60;50.30
35325;DHT22;35135;47.510;19.036;2023-05-23T06:05:59;25.60;49.60
35325;DHT22;35135;47.510;19.036;2023-05-23T06:08:25;25.50;49.60
35325;DHT22;35135;47.510;19.036;2023-05-23T06:10:51;25.50;50.10
35325;DHT22;35135;47.510;19.036;2023-05-23T06:13:16;25.50;50.00
35325;DHT22;35135;47.510;19.036;2023-05-23T06:15:42;25.60;50.10
35325;DHT22;35135;47.510;19.036;2023-05-23T06:18:08;25.60;50.20
35325;DHT22;35135;47.510;19.036;2023-05-23T06:20:34;25.70;49.90
35325;DHT22;35135;47.510;19.036;2023-05-23T06:23:00;25.60;49.90
35325;DHT22;35135;47.510;19.036;2023-05-23T06:25:26;25.70;49.70
35325;DHT22;35135;47.510;19.036;2023-05-23T06:27:52;25.70;49.80
35325;DHT22;35135;47.510;19.036;2023-05-23T06:30:17;25.70;49.90
35325;DHT22;35135;47.510;19.036;2023-05-23T06:32:43;25.70;49.80
35325;DHT22;35135;47.510;19.036;2023-05-23T06:35:09;25.80;49.60
35325;DHT22;35135;47.510;19.036;2023-05-23T06:37:34;25.80;49.70
35325;DHT22;35135;47.510;19.036;2023-05-23T06:40:00;25.80;49.60
35325;DHT22;35135;47.510;19.036;2023-05-23T06:42:26;25.80;49.60
35325;DHT22;35135;47.510;19.036;2023-05-23T06:44:52;25.90;49.40
35325;DHT22;35135;47.510;19.036;2023-05-23T06:47:17;25.80;49.50
35325;DHT22;35135;47.510;19.036;2023-05-23T06:49:43;25.90;49.50
35325;DHT22;35135;47.510;19.036;2023-05-23T06:52:10;25.90;49.40
35325;DHT22;35135;47.510;19.036;2023-05-23T06:54:35;25.90;49.50
35325;DHT22;35135;47.510;19.036;2023-05-23T06:57:01;25.90;49.40
35325;DHT22;35135;47.510;19.036;2023-05-23T06:59:29;25.90;49.50
35325;DHT22;35135;47.510;19.036;2023-05-23T07:01:55;25.90;49.30
35325;DHT22;35135;47.510;19.036;2023-05-23T07:04:20;25.90;49.30
35325;DHT22;35135;47.510;19.036;2023-05-23T07:06:46;25.90;49.50
35325;DHT22;35135;47.510;19.036;2023-05-23T07:09:12;25.90;49.40
35325;DHT22;35135;47.510;19.036;2023-05-23T07:11:38;25.90;49.40
35325;DHT22;35135;47.510;19.036;2023-05-23T07:14:05;25.90;49.40
35325;DHT22;35135;47.510;19.036;2023-05-23T07:16:32;25.90;49.50
35325;DHT22;35135;47.510;19.036;2023-05-23T07:18:58;26.00;49.40
35325;DHT22;35135;47.510;19.036;2023-05-23T07:21:23;25.90;48.90
35325;DHT22;35135;47.510;19.036;2023-05-23T07:23:49;26.00;49.30
35325;DHT22;35135;47.510;19.036;2023-05-23T07:26:14;25.90;49.30
35325;DHT22;35135;47.510;19.036;2023-05-23T07:28:40;25.90;49.20
35325;DHT22;35135;47.510;19.036;2023-05-23T07:31:06;25.90;49.30
35325;DHT22;35135;47.510;19.036;2023-05-23T07:33:33;25.90;48.90
35325;DHT22;35135;47.510;19.036;2023-05-23T07:35:59;25.90;48.90
35325;DHT22;35135;47.510;19.036;2023-05-23T07:38:25;25.90;49.10
35325;DHT22;35135;47.510;19.036;2023-05-23T07:40:51;26.00;49.90
35325;DHT22;35135;47.510;19.036;2023-05-23T07:43:17;26.00;49.40
35325;DHT22;35135;47.510;19.036;2023-05-23T07:45:42;26.00;49.30
35325;DHT22;35135;47.510;19.036;2023-05-23T07:48:08;26.00;49.30
35325;DHT22;35135;47.510;19.036;2023-05-23T07:50:34;26.00;49.20
35325;DHT22;35135;47.510;19.036;2023-05-23T07:52:59;26.00;49.30
35325;DHT22;35135;47.510;19.036;2023-05-23T07:55:25;26.00;49.30
35325;DHT22;35135;47.510;19.036;2023-05-23T07:57:51;26.00;49.20
35325;DHT22;35135;47.510;19.036;2023-05-23T08:00:19;26.00;49.20
35325;DHT22;35135;47.510;19.036;2023-05-23T08:02:45;26.00;49.10
35325;DHT22;35135;47.510;19.036;2023-05-23T08:05:11;26.00;48.90
35325;DHT22;35135;47.510;19.036;2023-05-23T08:07:36;26.00;49.20
35325;DHT22;35135;47.510;19.036;2023-05-23T08:10:02;26.00;49.20
35325;DHT22;35135;47.510;19.036;2023-05-23T08:12:28;26.00;49.20
35325;DHT22;35135;47.510;19.036;2023-05-23T08:14:53;26.00;49.30
35325;DHT22;35135;47.510;19.036;2023-05-23T08:17:19;26.00;49.30
35325;DHT22;35135;47.510;19.036;2023-05-23T08:19:45;26.00;49.20
35325;DHT22;35135;47.510;19.036;2023-05-23T08:22:11;26.00;49.30
35325;DHT22;35135;47.510;19.036;2023-05-23T08:24:36;26.00;49.30
35325;DHT22;35135;47.510;19.036;2023-05-23T08:27:02;26.00;49.40
35325;DHT22;35135;47.510;19.036;2023-05-23T08:29:28;25.90;49.30
35325;DHT22;35135;47.510;19.036;2023-05-23T08:31:53;26.00;49.40
35325;DHT22;35135;47.510;19.036;2023-05-23T08:34:19;25.90;49.50
35325;DHT22;35135;47.510;19.036;2023-05-23T08:36:45;26.00;49.60
35325;DHT22;35135;47.510;19.036;2023-05-23T08:39:10;26.00;49.60
35325;DHT22;35135;47.510;19.036;2023-05-23T08:41:36;25.90;49.60
35325;DHT22;35135;47.510;19.036;2023-05-23T08:44:02;25.90;49.60
35325;DHT22;35135;47.510;19.036;2023-05-23T08:46:28;25.90;49.60
35325;DHT22;35135;47.510;19.036;2023-05-23T08:48:54;26.00;49.60
35325;DHT22;35135;47.510;19.036;2023-05-23T08:51:21;25.90;49.60
35325;DHT22;35135;47.510;19.036;2023-05-23T08:53:48;25.90;49.70
35325;DHT22;35135;47.510;19.036;2023-05-23T08:56:15;25.90;49.70
35325;DHT22;35135;47.510;19.036;2023-05-23T08:58:41;25.90;49.80
35325;DHT22;35135;47.510;19.036;2023-05-23T09:01:10;25.90;49.80
35325;DHT22;35135;47.510;19.036;2023-05-23T09:03:39;25.90;49.90
35325;DHT22;35135;47.510;19.036;2023-05-23T09:06:08;25.90;49.90
35325;DHT22;35135;47.510;19.036;2023-05-23T09:08:34;25.90;49.90
35325;DHT22;35135;47.510;19.036;2023-05-23T09:11:01;25.80;49.90
35325;DHT22;35135;47.510;19.036;2023-05-23T09:13:31;25.90;50.00
35325;DHT22;35135;47.510;19.036;2023-05-23T09:16:05;25.80;50.00
35325;DHT22;35135;47.510;19.036;2023-05-23T09:18:37;25.80;50.10
35325;DHT22;35135;47.510;19.036;2023-05-23T09:21:03;25.80;50.10
35325;DHT22;35135;47.510;19.036;2023-05-23T09:23:30;25.80;50.20
35325;DHT22;35135;47.510;19.036;2023-05-23T09:25:59;25.80;50.10
35325;DHT22;35135;47.510;19.036;2023-05-23T09:28:25;25.80;50.10
35325;DHT22;35135;47.510;19.036;2023-05-23T09:31:00;25.80;50.10
35325;DHT22;35135;47.510;19.036;2023-05-23T09:33:52;25.80;50.20
35325;DHT22;35135;47.510;19.036;2023-05-23T09:36:18;25.80;50.20
35325;DHT22;35135;47.510;19.036;2023-05-23T09:38:45;25.80;50.30
35325;DHT22;35135;47.510;19.036;2023-05-23T09:41:12;25.80;50.30
35325;DHT22;35135;47.510;19.036;2023-05-23T09:43:39;25.80;50.30
35325;DHT22;35135;47.510;19.036;2023-05-23T09:46:11;25.80;50.30
35325;DHT22;35135;47.510;19.036;2023-05-23T09:48:37;25.80;50.40
35325;DHT22;35135;47.510;19.036;2023-05-23T09:51:08;25.80;50.50
35325;DHT22;35135;47.510;19.036;2023-05-23T09:53:34;25.80;50.50
35325;DHT22;35135;47.510;19.036;2023-05-23T09:56:01;25.70;50.40
35325;DHT22;35135;47.510;19.036;2023-05-23T09:58:28;25.70;50.50
35325;DHT22;35135;47.510;19.036;2023-05-23T10:00:59;25.80;50.50
35325;DHT22;35135;47.510;19.036;2023-05-23T10:03:41;25.80;50.50
35325;DHT22;35135;47.510;19.036;2023-05-23T10:06:24;25.80;50.50
35325;DHT22;35135;47.510;19.036;2023-05-23T10:08:56;25.80;50.50
35325;DHT22;35135;47.510;19.036;2023-05-23T10:14:00;25.70;50.40
35325;DHT22;35135;47.510;19.036;2023-05-23T10:16:42;25.70;50.30
35325;DHT22;35135;47.510;19.036;2023-05-23T10:22:00;25.70;50.40
35325;DHT22;35135;47.510;19.036;2023-05-23T10:24:28;25.70;50.30
35325;DHT22;35135;47.510;19.036;2023-05-23T10:26:54;25.70;50.30
35325;DHT22;35135;47.510;19.036;2023-05-23T10:29:21;25.70;50.10
35325;DHT22;35135;47.510;19.036;2023-05-23T10:31:48;25.70;50.00
35325;DHT22;35135;47.510;19.036;2023-05-23T10:34:21;25.70;50.10
35325;DHT22;35135;47.510;19.036;2023-05-23T10:37:05;25.70;50.00
35325;DHT22;35135;47.510;19.036;2023-05-23T10:45:18;25.70;50.10
35325;DHT22;35135;47.510;19.036;2023-05-23T10:47:46;25.70;50.00
35325;DHT22;35135;47.510;19.036;2023-05-23T10:50:15;25.70;50.00
35325;DHT22;35135;47.510;19.036;2023-05-23T10:52:42;25.70;49.90
35325;DHT22;35135;47.510;19.036;2023-05-23T10:55:14;25.70;50.00
35325;DHT22;35135;47.510;19.036;2023-05-23T10:57:43;25.70;49.90
35325;DHT22;35135;47.510;19.036;2023-05-23T11:00:16;25.70;50.00
35325;DHT22;35135;47.510;19.036;2023-05-23T11:03:04;25.70;50.00
35325;DHT22;35135;47.510;19.036;2023-05-23T11:05:33;25.70;50.00
35325;DHT22;35135;47.510;19.036;2023-05-23T11:08:11;25.70;50.00
35325;DHT22;35135;47.510;19.036;2023-05-23T11:10:59;25.70;50.00
35325;DHT22;35135;47.510;19.036;2023-05-23T11:13:25;25.70;50.00
35325;DHT22;35135;47.510;19.036;2023-05-23T11:16:44;25.70;50.00
35325;DHT22;35135;47.510;19.036;2023-05-23T11:21:58;25.70;50.00
35325;DHT22;35135;47.510;19.036;2023-05-23T11:24:50;25.80;50.10
35325;DHT22;35135;47.510;19.036;2023-05-23T11:27:27;25.80;50.00
35325;DHT22;35135;47.510;19.036;2023-05-23T11:30:01;25.70;50.00
35325;DHT22;35135;47.510;19.036;2023-05-23T11:32:29;25.70;50.00
35325;DHT22;35135;47.510;19.036;2023-05-23T11:35:02;25.70;49.90
35325;DHT22;35135;47.510;19.036;2023-05-23T11:37:29;25.70;50.00
35325;DHT22;35135;47.510;19.036;2023-05-23T11:39:55;25.70;49.90
35325;DHT22;35135;47.510;19.036;2023-05-23T11:42:21;25.70;50.00
35325;DHT22;35135;47.510;19.036;2023-05-23T11:44:51;25.70;50.00
35325;DHT22;35135;47.510;19.036;2023-05-23T11:47:17;25.70;49.80
35325;DHT22;35135;47.510;19.036;2023-05-23T11:49:45;25.70;49.90
35325;DHT22;35135;47.510;19.036;2023-05-23T11:52:12;25.70;49.80
35325;DHT22;35135;47.510;19.036;2023-05-23T11:54:41;25.70;49.70
35325;DHT22;35135;47.510;19.036;2023-05-23T11:57:08;25.70;49.80
35325;DHT22;35135;47.510;19.036;2023-05-23T11:59:34;25.70;49.70
35325;DHT22;35135;47.510;19.036;2023-05-23T12:02:01;25.70;49.80
35325;DHT22;35135;47.510;19.036;2023-05-23T12:04:27;25.70;49.80
35325;DHT22;35135;47.510;19.036;2023-05-23T12:06:53;25.70;49.90
35325;DHT22;35135;47.510;19.036;2023-05-23T12:09:19;25.80;49.90
35325;DHT22;35135;47.510;19.036;2023-05-23T12:11:47;25.70;49.80
35325;DHT22;35135;47.510;19.036;2023-05-23T12:14:14;25.80;50.00
35325;DHT22;35135;47.510;19.036;2023-05-23T12:16:42;25.80;49.90
35325;DHT22;35135;47.510;19.036;2023-05-23T12:19:10;25.80;49.80
35325;DHT22;35135;47.510;19.036;2023-05-23T12:21:47;25.80;49.40
35325;DHT22;35135;47.510;19.036;2023-05-23T12:24:14;25.80;49.60
35325;DHT22;35135;47.510;19.036;2023-05-23T12:26:49;25.80;49.80
35325;DHT22;35135;47.510;19.036;2023-05-23T12:29:17;25.80;49.60
35325;DHT22;35135;47.510;19.036;2023-05-23T12:31:43;25.80;49.40
35325;DHT22;35135;47.510;19.036;2023-05-23T12:34:12;25.80;49.60
35325;DHT22;35135;47.510;19.036;2023-05-23T12:36:38;25.80;49.60
35325;DHT22;35135;47.510;19.036;2023-05-23T12:39:04;25.80;49.50
35325;DHT22;35135;47.510;19.036;2023-05-23T12:41:32;25.80;49.50
35325;DHT22;35135;47.510;19.036;2023-05-23T12:43:58;25.90;49.40
35325;DHT22;35135;47.510;19.036;2023-05-23T12:46:25;25.80;49.50
35325;DHT22;35135;47.510;19.036;2023-05-23T12:48:52;25.90;49.40
35325;DHT22;35135;47.510;19.036;2023-05-23T12:51:18;25.90;49.30
35325;DHT22;35135;47.510;19.036;2023-05-23T12:53:44;25.90;48.90
35325;DHT22;35135;47.510;19.036;2023-05-23T12:56:10;25.80;49.20
35325;DHT22;35135;47.510;19.036;2023-05-23T12:58:36;25.90;49.20
35325;DHT22;35135;47.510;19.036;2023-05-23T13:01:02;25.90;49.20
35325;DHT22;35135;47.510;19.036;2023-05-23T13:03:28;25.90;49.10
35325;DHT22;35135;47.510;19.036;2023-05-23T13:05:57;25.90;48.90
35325;DHT22;35135;47.510;19.036;2023-05-23T13:08:24;25.90;48.70
35325;DHT22;35135;47.510;19.036;2023-05-23T13:10:51;25.90;48.80
35325;DHT22;35135;47.510;19.036;2023-05-23T13:13:17;25.90;49.00
35325;DHT22;35135;47.510;19.036;2023-05-23T13:15:43;25.90;49.00
35325;DHT22;35135;47.510;19.036;2023-05-23T13:18:08;25.90;48.70
35325;DHT22;35135;47.510;19.036;2023-05-23T13:20:34;25.90;48.60
35325;DHT22;35135;47.510;19.036;2023-05-23T13:23:00;25.90;48.80
35325;DHT22;35135;47.510;19.036;2023-05-23T13:25:26;25.90;48.60
35325;DHT22;35135;47.510;19.036;2023-05-23T13:27:52;25.90;48.80
35325;DHT22;35135;47.510;19.036;2023-05-23T13:30:19;25.90;48.70
35325;DHT22;35135;47.510;19.036;2023-05-23T13:32:45;25.90;48.80
35325;DHT22;35135;47.510;19.036;2023-05-23T13:35:11;25.90;48.70
35325;DHT22;35135;47.510;19.036;2023-05-23T13:37:37;25.90;48.80
35325;DHT22;35135;47.510;19.036;2023-05-23T13:40:03;25.90;48.60
35325;DHT22;35135;47.510;19.036;2023-05-23T13:42:29;25.90;48.70
35325;DHT22;35135;47.510;19.036;2023-05-23T13:44:55;25.90;48.70
35325;DHT22;35135;47.510;19.036;2023-05-23T13:47:21;25.90;48.60
35325;DHT22;35135;47.510;19.036;2023-05-23T13:49:47;25.90;48.50
35325;DHT22;35135;47.510;19.036;2023-05-23T13:52:12;25.90;48.40
35325;DHT22;35135;47.510;19.036;2023-05-23T13:54:38;25.90;48.50
35325;DHT22;35135;47.510;19.036;2023-05-23T13:57:04;25.90;48.70
35325;DHT22;35135;47.510;19.036;2023-05-23T13:59:31;25.90;48.80
35325;DHT22;35135;47.510;19.036;2023-05-23T14:01:56;25.90;48.70
35325;DHT22;35135;47.510;19.036;2023-05-23T14:04:22;25.90;48.60
35325;DHT22;35135;47.510;19.036;2023-05-23T14:06:48;25.90;48.60
35325;DHT22;35135;47.510;19.036;2023-05-23T14:09:14;25.90;48.70
35325;DHT22;35135;47.510;19.036;2023-05-23T14:11:40;25.90;48.30
35325;DHT22;35135;47.510;19.036;2023-05-23T14:14:06;25.90;48.80
35325;DHT22;35135;47.510;19.036;2023-05-23T14:16:32;26.00;48.10
35325;DHT22;35135;47.510;19.036;2023-05-23T14:18:57;26.00;48.50
35325;DHT22;35135;47.510;19.036;2023-05-23T14:21:23;26.00;48.50
35325;DHT22;35135;47.510;19.036;2023-05-23T14:23:49;26.00;48.30
35325;DHT22;35135;47.510;19.036;2023-05-23T14:26:14;26.00;48.00
35325;DHT22;35135;47.510;19.036;2023-05-23T14:28:40;26.00;47.50
35325;DHT22;35135;47.510;19.036;2023-05-23T14:31:06;26.00;47.90
35325;DHT22;35135;47.510;19.036;2023-05-23T14:33:31;26.00;47.80
35325;DHT22;35135;47.510;19.036;2023-05-23T14:35:57;26.00;47.70
35325;DHT22;35135;47.510;19.036;2023-05-23T14:38:23;26.00;47.30
35325;DHT22;35135;47.510;19.036;2023-05-23T14:40:49;26.00;47.20
35325;DHT22;35135;47.510;19.036;2023-05-23T14:43:15;25.90;47.20
35325;DHT22;35135;47.510;19.036;2023-05-23T14:45:42;26.00;47.30
35325;DHT22;35135;47.510;19.036;2023-05-23T14:48:09;26.00;46.90
35325;DHT22;35135;47.510;19.036;2023-05-23T14:50:34;26.00;47.10
35325;DHT22;35135;47.510;19.036;2023-05-23T14:53:00;26.00;47.10
35325;DHT22;35135;47.510;19.036;2023-05-23T14:55:26;26.00;46.70
35325;DHT22;35135;47.510;19.036;2023-05-23T14:57:52;26.00;47.00
35325;DHT22;35135;47.510;19.036;2023-05-23T15:00:18;26.00;47.00
35325;DHT22;35135;47.510;19.036;2023-05-23T15:02:44;26.00;47.00
35325;DHT22;35135;47.510;19.036;2023-05-23T15:05:11;26.00;47.00
35325;DHT22;35135;47.510;19.036;2023-05-23T15:07:37;26.00;47.00
35325;DHT22;35135;47.510;19.036;2023-05-23T15:10:04;26.00;46.60
35325;DHT22;35135;47.510;19.036;2023-05-23T15:12:31;26.00;46.60
35325;DHT22;35135;47.510;19.036;2023-05-23T15:14:57;26.00;46.90
35325;DHT22;35135;47.510;19.036;2023-05-23T15:17:34;26.10;46.80
35325;DHT22;35135;47.510;19.036;2023-05-23T15:19:59;26.10;46.70
35325;DHT22;35135;47.510;19.036;2023-05-23T15:22:25;26.10;46.80
35325;DHT22;35135;47.510;19.036;2023-05-23T15:24:51;26.10;46.50
35325;DHT22;35135;47.510;19.036;2023-05-23T15:27:17;26.10;46.80
35325;DHT22;35135;47.510;19.036;2023-05-23T15:29:44;26.10;46.90
35325;DHT22;35135;47.510;19.036;2023-05-23T15:32:10;26.10;46.40
35325;DHT22;35135;47.510;19.036;2023-05-23T15:34:35;26.10;47.00